createdAt,value
2023-04-13T00:02:42.041Z,2.14
2023-04-13T00:05:53.966Z,2.17
2023-04-13T00:09:10.866Z,2.09
2023-04-13T00:12:21.551Z,2.12
2023-04-13T00:15:28.606Z,2.17
2023-04-13T00:18:35.705Z,2.27
2023-04-13T00:21:42.430Z,2.16
2023-04-13T00:24:54.824Z,2.17
2023-04-13T00:28:03.338Z,2.22
2023-04-13T00:31:10.590Z,2.16
2023-04-13T00:34:16.622Z,2.15
2023-04-13T00:37:24.149Z,2.11
2023-04-13T00:40:32.676Z,2.06
2023-04-13T00:43:39.466Z,1.99
2023-04-13T00:46:46.779Z,1.91
2023-04-13T00:49:54.394Z,1.89
2023-04-13T00:53:00.798Z,1.88
2023-04-13T00:56:12.461Z,1.85
2023-04-13T00:59:21.294Z,1.82
2023-04-13T01:02:29.486Z,1.75
2023-04-13T01:05:52.055Z,1.67
2023-04-13T01:09:09.928Z,1.66
2023-04-13T01:12:29.832Z,1.70
2023-04-13T01:15:46.649Z,1.54
2023-04-13T01:18:58.382Z,1.46
2023-04-13T01:22:08.009Z,1.53
2023-04-13T01:25:34.751Z,1.58
2023-04-13T01:28:44.743Z,1.51
2023-04-13T01:31:53.134Z,1.69
2023-04-13T01:35:00.086Z,1.68
2023-04-13T01:38:10.298Z,1.76
2023-04-13T01:41:16.556Z,1.93
2023-04-13T01:44:29.527Z,2.00
2023-04-13T01:47:41.723Z,2.03
2023-04-13T01:51:22.058Z,2.10
2023-04-13T01:54:36.364Z,2.20
2023-04-13T01:57:47.656Z,2.14
2023-04-13T02:00:57.568Z,2.18
2023-04-13T02:04:05.974Z,2.19
2023-04-13T02:07:12.653Z,2.27
2023-04-13T02:10:25.112Z,2.31
2023-04-13T02:13:31.239Z,2.17
2023-04-13T02:16:42.184Z,2.25
2023-04-13T02:19:48.165Z,2.30
2023-04-13T02:22:55.404Z,2.38
2023-04-13T02:26:01.427Z,2.29
2023-04-13T02:29:09.360Z,2.45
2023-04-13T02:32:19.182Z,2.42
2023-04-13T02:35:26.276Z,2.45
2023-04-13T02:38:32.746Z,2.54
2023-04-13T02:41:45.974Z,2.55
2023-04-13T02:44:57.241Z,2.44
2023-04-13T02:48:07.531Z,2.33
2023-04-13T02:51:13.534Z,2.41
2023-04-13T02:54:22.708Z,2.31
2023-04-13T02:57:30.017Z,2.44
2023-04-13T03:00:38.999Z,2.33
2023-04-13T03:03:52.630Z,2.24
2023-04-13T03:07:08.694Z,2.16
2023-04-13T03:10:19.403Z,2.11
2023-04-13T03:13:27.959Z,2.08
2023-04-13T03:16:36.614Z,2.08
2023-04-13T03:19:49.347Z,2.07
2023-04-13T03:22:59.012Z,2.00
2023-04-13T03:26:10.127Z,2.01
2023-04-13T03:29:18.980Z,2.00
2023-04-13T03:32:26.229Z,1.95
2023-04-13T03:35:41.040Z,1.95
2023-04-13T03:38:55.488Z,1.96
2023-04-13T03:42:03.870Z,1.77
2023-04-13T03:45:12.749Z,1.89
2023-04-13T03:48:19.327Z,1.81
2023-04-13T03:51:29.575Z,1.82
2023-04-13T03:54:35.568Z,1.73
2023-04-13T03:57:42.490Z,1.71
2023-04-13T04:00:53.937Z,1.63
2023-04-13T04:04:11.236Z,1.66
2023-04-13T04:07:23.484Z,1.60
2023-04-13T04:10:31.733Z,1.61
2023-04-13T04:13:38.631Z,1.75
2023-04-13T04:16:50.194Z,1.66
2023-04-13T04:19:58.420Z,1.77
2023-04-13T04:23:10.190Z,1.93
2023-04-13T04:26:26.139Z,2.10
2023-04-13T04:29:40.933Z,2.10
2023-04-13T04:33:02.074Z,2.23
2023-04-13T04:36:16.638Z,2.38
2023-04-13T04:39:44.837Z,2.54
2023-04-13T04:42:55.833Z,2.52
2023-04-13T04:46:16.511Z,2.63
2023-04-13T04:49:31.000Z,3.04
2023-04-13T04:52:37.948Z,3.24
2023-04-13T04:55:48.997Z,3.27
2023-04-13T04:59:13.400Z,3.46
2023-04-13T05:02:35.731Z,3.71
2023-04-13T05:05:42.815Z,4.16
2023-04-13T05:08:57.157Z,4.44
2023-04-13T05:12:07.894Z,4.33
2023-04-13T05:15:17.523Z,5.36
2023-04-13T05:18:25.867Z,5.13
2023-04-13T05:21:35.356Z,4.81
2023-04-13T05:24:41.680Z,4.43
2023-04-13T05:27:54.562Z,4.58
2023-04-13T05:31:04.634Z,4.65
2023-04-13T05:34:14.576Z,4.43
2023-04-13T05:37:28.883Z,4.72
2023-04-13T05:40:36.197Z,4.78
2023-04-13T05:43:46.507Z,4.98
2023-04-13T05:46:54.479Z,5.02
2023-04-13T05:50:00.872Z,5.32
2023-04-13T05:53:09.114Z,5.46
2023-04-13T05:56:27.088Z,5.62
2023-04-13T05:59:37.850Z,5.68
2023-04-13T06:02:44.394Z,5.67
2023-04-13T06:05:53.557Z,5.65
2023-04-13T06:08:59.876Z,5.41
2023-04-13T06:12:08.244Z,5.48
2023-04-13T06:15:18.678Z,5.35
2023-04-13T06:18:25.354Z,5.31
2023-04-13T06:21:32.524Z,5.17
2023-04-13T06:24:39.157Z,5.11
2023-04-13T06:27:50.212Z,5.56
2023-04-13T06:31:01.653Z,5.89
2023-04-13T06:34:08.654Z,5.62
2023-04-13T06:37:18.146Z,5.68
2023-04-13T06:40:27.953Z,5.94
2023-04-13T06:43:42.349Z,6.22
2023-04-13T06:47:14.005Z,5.97
2023-04-13T06:50:23.725Z,6.17
2023-04-13T06:53:30.301Z,6.30
2023-04-13T06:56:37.156Z,6.40
2023-04-13T06:59:43.714Z,6.73
2023-04-13T07:02:53.233Z,6.85
2023-04-13T07:06:00.472Z,6.82
2023-04-13T07:09:07.492Z,7.13
2023-04-13T07:12:14.476Z,7.20
2023-04-13T07:15:22.680Z,7.47
2023-04-13T07:18:31.926Z,7.65
2023-04-13T07:21:38.899Z,8.12
2023-04-13T07:24:44.877Z,8.13
2023-04-13T07:27:56.341Z,9.22
2023-04-13T07:31:03.808Z,10.13
2023-04-13T07:34:13.685Z,10.38
2023-04-13T07:37:24.528Z,11.20
2023-04-13T07:40:31.666Z,10.57
2023-04-13T07:43:43.366Z,11.25
2023-04-13T07:46:50.839Z,11.43
2023-04-13T07:50:01.869Z,11.93
2023-04-13T07:53:09.179Z,12.21
2023-04-13T07:56:16.336Z,12.18
2023-04-13T07:59:25.072Z,12.01
2023-04-13T08:02:32.421Z,11.78
2023-04-13T08:05:43.017Z,12.48
2023-04-13T08:08:50.333Z,13.77
2023-04-13T08:11:57.682Z,14.21
2023-04-13T08:15:03.602Z,13.90
2023-04-13T08:18:10.870Z,14.29
2023-04-13T08:21:20.090Z,14.27
2023-04-13T08:24:29.518Z,13.21
2023-04-13T08:27:36.359Z,13.40
2023-04-13T08:30:46.142Z,14.39
2023-04-13T08:33:52.743Z,13.76
2023-04-13T08:37:02.260Z,14.33
2023-04-13T08:40:14.471Z,14.39
2023-04-13T08:43:23.705Z,14.00
2023-04-13T08:46:30.173Z,14.42
2023-04-13T08:49:42.777Z,14.08
2023-04-13T08:52:59.234Z,13.72
2023-04-13T08:56:15.162Z,13.08
2023-04-13T08:59:24.174Z,12.79
2023-04-13T09:02:44.267Z,12.89
2023-04-13T09:06:11.679Z,13.34
2023-04-13T09:09:23.580Z,14.22
2023-04-13T09:12:34.203Z,14.73
2023-04-13T09:15:41.436Z,15.47
2023-04-13T09:19:06.193Z,15.67
2023-04-13T09:22:16.979Z,15.22
2023-04-13T09:25:28.716Z,16.28
2023-04-13T09:28:35.647Z,17.30
2023-04-13T09:31:45.235Z,18.09
2023-04-13T09:35:05.169Z,17.29
2023-04-13T09:38:15.655Z,18.09
2023-04-13T09:41:36.996Z,18.51
2023-04-13T09:44:43.233Z,18.03
2023-04-13T09:48:06.294Z,18.53
2023-04-13T09:51:13.298Z,17.66
2023-04-13T09:54:30.065Z,18.18
2023-04-13T09:57:49.517Z,17.84
2023-04-13T10:00:58.403Z,18.30
2023-04-13T10:04:04.668Z,19.36
2023-04-13T10:07:12.551Z,18.73
2023-04-13T10:10:19.856Z,20.12
2023-04-13T10:13:45.185Z,21.25
2023-04-13T10:17:28.643Z,20.79
2023-04-13T10:20:38.020Z,21.10
2023-04-13T10:23:45.933Z,20.86
2023-04-13T10:27:00.582Z,19.42
2023-04-13T10:30:22.053Z,20.84
2023-04-13T10:33:31.926Z,21.17
2023-04-13T10:36:47.303Z,20.13
2023-04-13T10:40:10.332Z,19.90
2023-04-13T10:43:27.451Z,19.80
2023-04-13T10:46:37.896Z,19.88
2023-04-13T10:49:46.453Z,17.88
2023-04-13T10:53:05.242Z,17.10
2023-04-13T10:56:19.591Z,17.21
2023-04-13T10:59:26.625Z,18.11
2023-04-13T11:02:36.529Z,18.16
2023-04-13T11:05:43.858Z,17.12
2023-04-13T11:08:50.034Z,17.14
2023-04-13T11:11:58.670Z,17.14
2023-04-13T11:15:04.605Z,16.83
2023-04-13T11:18:14.239Z,16.93
2023-04-13T11:21:21.426Z,15.88
2023-04-13T11:24:34.782Z,15.67
2023-04-13T11:27:41.354Z,15.88
2023-04-13T11:31:01.885Z,15.94
2023-04-13T11:34:13.501Z,17.36
2023-04-13T11:37:20.938Z,16.60
2023-04-13T11:40:29.429Z,16.50
2023-04-13T11:43:37.418Z,16.94
2023-04-13T11:46:43.717Z,17.00
2023-04-13T11:49:54.427Z,16.54
2023-04-13T11:53:04.066Z,16.79
2023-04-13T11:56:11.783Z,15.95
2023-04-13T11:59:18.121Z,15.77
2023-04-13T12:02:30.078Z,15.38
2023-04-13T12:05:42.554Z,14.84
2023-04-13T12:08:56.143Z,14.37
2023-04-13T12:12:46.484Z,14.63
2023-04-13T12:16:05.432Z,14.78
2023-04-13T12:19:15.315Z,14.20
2023-04-13T12:22:38.808Z,14.29
2023-04-13T12:26:25.524Z,13.74
2023-04-13T12:29:29.900Z,13.31
2023-04-13T12:32:37.200Z,13.46
2023-04-13T12:35:44.051Z,13.60
2023-04-13T12:38:52.564Z,13.57
2023-04-13T12:41:59.852Z,13.06
2023-04-13T12:45:08.295Z,12.99
2023-04-13T12:48:15.363Z,12.74
2023-04-13T12:51:21.517Z,12.42
2023-04-13T12:54:31.316Z,12.44
2023-04-13T12:57:37.274Z,12.62
2023-04-13T13:00:44.263Z,12.23
2023-04-13T13:03:50.394Z,11.96
2023-04-13T13:07:05.717Z,11.93
2023-04-13T13:10:29.084Z,11.91
2023-04-13T13:13:36.969Z,11.86
2023-04-13T13:16:43.268Z,11.59
2023-04-13T13:19:50.166Z,11.78
2023-04-13T13:22:56.140Z,11.67
2023-04-13T13:26:23.267Z,11.50
2023-04-13T13:29:33.649Z,11.12
2023-04-13T13:32:40.610Z,11.10
2023-04-13T13:35:50.300Z,11.06
2023-04-13T13:38:57.431Z,11.15
2023-04-13T13:42:06.405Z,11.05
2023-04-13T13:45:14.260Z,11.02
2023-04-13T13:48:21.991Z,10.90
2023-04-13T13:51:38.501Z,10.93
2023-04-13T13:54:53.535Z,10.95
2023-04-13T13:58:03.689Z,10.94
2023-04-13T14:01:10.540Z,10.72
2023-04-13T14:04:17.588Z,10.81
2023-04-13T14:07:24.636Z,10.63
2023-04-13T14:10:31.480Z,10.29
2023-04-13T14:13:40.101Z,10.27
2023-04-13T14:16:46.873Z,9.99
2023-04-13T14:19:52.949Z,9.98
2023-04-13T14:23:01.290Z,9.88
2023-04-13T14:26:07.661Z,9.66
2023-04-13T14:29:21.666Z,9.48
2023-04-13T14:32:29.756Z,9.41
2023-04-13T14:35:40.058Z,9.20
2023-04-13T14:38:46.004Z,9.10
2023-04-13T14:41:53.792Z,8.95
2023-04-13T14:45:11.350Z,8.89
2023-04-13T14:48:28.752Z,8.87
2023-04-13T14:51:34.974Z,8.85
2023-04-13T14:54:42.330Z,8.85
2023-04-13T14:57:48.473Z,8.63
2023-04-13T15:00:57.994Z,8.59
2023-04-13T15:04:04.635Z,8.59
2023-04-13T15:07:18.401Z,8.23
2023-04-13T15:10:33.650Z,8.34
2023-04-13T15:13:42.937Z,8.25
2023-04-13T15:16:51.820Z,8.32
2023-04-13T15:20:19.356Z,8.16
2023-04-13T15:23:41.612Z,8.29
2023-04-13T15:26:52.661Z,8.30
2023-04-13T15:30:10.391Z,8.23
2023-04-13T15:33:40.305Z,8.16
2023-04-13T15:36:46.373Z,8.20
2023-04-13T15:39:53.516Z,8.19
2023-04-13T15:42:59.706Z,8.19
2023-04-13T15:46:06.779Z,8.11
2023-04-13T15:49:15.522Z,7.95
2023-04-13T15:52:29.243Z,7.91
2023-04-13T15:55:36.045Z,7.93
2023-04-13T15:58:43.093Z,7.71
2023-04-13T16:01:55.280Z,7.42
2023-04-13T16:05:06.070Z,7.56
2023-04-13T16:08:12.536Z,7.67
2023-04-13T16:11:28.040Z,7.52
2023-04-13T16:14:42.446Z,7.36
2023-04-13T16:17:49.435Z,7.36
2023-04-13T16:21:09.362Z,7.29
2023-04-13T16:24:21.476Z,7.09
2023-04-13T16:27:30.731Z,7.10
2023-04-13T16:30:37.807Z,7.09
2023-04-13T16:33:43.898Z,7.03
2023-04-13T16:36:53.526Z,6.90
2023-04-13T16:39:59.517Z,7.01
2023-04-13T16:43:14.987Z,6.98
2023-04-13T16:46:22.194Z,6.89
2023-04-13T16:49:32.916Z,6.82
2023-04-13T16:52:42.029Z,6.79
2023-04-13T16:55:59.665Z,6.87
2023-04-13T16:59:05.675Z,6.85
2023-04-13T17:02:24.637Z,6.82
2023-04-13T17:05:34.295Z,6.82
2023-04-13T17:08:43.773Z,6.85
2023-04-13T17:11:49.734Z,6.83
2023-04-13T17:14:57.875Z,6.93
2023-04-13T17:18:04.641Z,6.88
2023-04-13T17:21:11.835Z,6.84
2023-04-13T17:24:20.518Z,6.81
2023-04-13T17:27:27.446Z,6.74
2023-04-13T17:30:33.718Z,6.68
2023-04-13T17:33:45.387Z,6.64
2023-04-13T17:36:52.003Z,6.72
2023-04-13T17:40:02.551Z,6.78
2023-04-13T17:43:09.528Z,6.80
2023-04-13T17:46:16.582Z,6.76
2023-04-13T17:49:26.487Z,6.71
2023-04-13T17:52:33.271Z,6.62
2023-04-13T17:55:42.307Z,6.76
2023-04-13T17:58:49.161Z,6.52
2023-04-13T18:01:57.160Z,6.54
2023-04-13T18:05:04.122Z,6.44
2023-04-13T18:08:10.015Z,6.51
2023-04-13T18:11:19.591Z,6.63
2023-04-13T18:14:25.677Z,6.70
2023-04-13T18:17:32.516Z,6.67
2023-04-13T18:20:38.633Z,6.67
2023-04-13T18:23:46.528Z,6.73
2023-04-13T18:26:55.642Z,6.65
2023-04-13T18:30:02.633Z,6.54
2023-04-13T18:33:08.729Z,6.50
2023-04-13T18:36:18.752Z,6.45
2023-04-13T18:39:24.890Z,6.52
2023-04-13T18:42:34.506Z,6.58
2023-04-13T18:45:40.842Z,6.45
2023-04-13T18:48:47.985Z,6.24
2023-04-13T18:51:54.161Z,6.17
2023-04-13T18:55:01.183Z,6.20
2023-04-13T18:58:09.935Z,6.21
2023-04-13T19:01:20.256Z,6.09
2023-04-13T19:04:29.037Z,6.19
2023-04-13T19:07:36.264Z,6.23
2023-04-13T19:10:42.278Z,6.21
2023-04-13T19:13:51.752Z,6.28
2023-04-13T19:16:57.786Z,6.24
2023-04-13T19:20:06.631Z,6.34
2023-04-13T19:23:12.709Z,6.27
2023-04-13T19:26:19.659Z,6.31
2023-04-13T19:29:30.546Z,6.25
2023-04-13T19:32:37.355Z,6.26
2023-04-13T19:35:43.450Z,6.24
2023-04-13T19:38:52.109Z,6.28
2023-04-13T19:41:58.625Z,6.29
2023-04-13T19:45:09.095Z,6.24
2023-04-13T19:48:23.158Z,6.30
2023-04-13T19:51:30.268Z,6.34
2023-04-13T19:54:36.442Z,6.32
2023-04-13T19:57:44.087Z,6.32
2023-04-13T20:00:52.678Z,6.35
2023-04-13T20:03:59.966Z,6.23
2023-04-13T20:07:06.791Z,6.29
2023-04-13T20:10:15.592Z,6.30
2023-04-13T20:13:21.449Z,6.30
2023-04-13T20:16:30.825Z,6.27
2023-04-13T20:19:36.989Z,6.27
2023-04-13T20:22:43.850Z,6.30
2023-04-13T20:25:49.748Z,6.37
2023-04-13T20:28:57.179Z,6.44
2023-04-13T20:32:05.806Z,6.49
2023-04-13T20:35:13.395Z,6.51
2023-04-13T20:38:19.497Z,6.54
2023-04-13T20:41:26.598Z,6.51
2023-04-13T20:44:38.168Z,6.48
2023-04-13T20:47:53.325Z,6.37
2023-04-13T20:50:59.314Z,6.34
2023-04-13T20:54:10.394Z,6.39
2023-04-13T20:57:17.276Z,6.41
2023-04-13T21:00:34.461Z,6.46
2023-04-13T21:03:43.241Z,6.50
2023-04-13T21:06:50.474Z,6.51
2023-04-13T21:09:57.221Z,6.55
2023-04-13T21:13:05.086Z,6.62
2023-04-13T21:16:12.420Z,6.61
2023-04-13T21:19:21.871Z,6.60
2023-04-13T21:22:27.919Z,6.53
2023-04-13T21:25:34.650Z,6.57
2023-04-13T21:28:46.480Z,6.45
2023-04-13T21:31:53.369Z,6.52
2023-04-13T21:35:08.484Z,6.53
2023-04-13T21:38:19.036Z,6.64
2023-04-13T21:41:25.913Z,6.60
2023-04-13T21:44:32.973Z,6.59
2023-04-13T21:47:40.029Z,6.39
2023-04-13T21:50:53.622Z,6.32
2023-04-13T21:54:00.130Z,6.35
2023-04-13T21:57:07.711Z,6.42
2023-04-13T22:00:16.593Z,6.40
2023-04-13T22:03:23.476Z,6.44
2023-04-13T22:06:32.980Z,6.66
2023-04-13T22:09:47.427Z,6.80
2023-04-13T22:12:53.477Z,6.86
2023-04-13T22:16:00.417Z,6.88
2023-04-13T22:19:09.881Z,6.91
2023-04-13T22:22:19.442Z,6.84
2023-04-13T22:25:28.240Z,6.88
2023-04-13T22:28:35.535Z,6.81
2023-04-13T22:31:41.474Z,6.82
2023-04-13T22:34:48.261Z,6.87
2023-04-13T22:37:56.950Z,6.77
2023-04-13T22:41:11.756Z,6.71
2023-04-13T22:44:22.334Z,6.67
2023-04-13T22:47:29.106Z,6.73
2023-04-13T22:50:35.108Z,6.85
2023-04-13T22:53:45.527Z,6.75
2023-04-13T22:56:51.629Z,6.74
2023-04-13T23:00:08.496Z,6.71
2023-04-13T23:03:16.539Z,6.77
2023-04-13T23:06:23.670Z,6.72
2023-04-13T23:09:33.989Z,6.70
2023-04-13T23:12:41.038Z,6.66
2023-04-13T23:15:46.859Z,6.54
2023-04-13T23:18:53.676Z,6.53
2023-04-13T23:21:59.532Z,6.62
2023-04-13T23:25:12.629Z,6.53
2023-04-13T23:28:18.522Z,6.46
2023-04-13T23:31:25.387Z,6.54
2023-04-13T23:34:43.399Z,6.51
2023-04-13T23:37:50.194Z,6.49
2023-04-13T23:41:00.137Z,6.53
2023-04-13T23:44:07.028Z,6.44
2023-04-13T23:47:13.037Z,6.32
2023-04-13T23:50:20.350Z,6.32
2023-04-13T23:53:26.268Z,6.38
2023-04-13T23:56:35.866Z,6.41
2023-04-13T23:59:42.013Z,6.36
